Мобильная версия
Войти

В Казахстане разбился военный самолет Ан-26.

 ↓ ВНИЗ

123

Имярек
Старожил форума
13.03.2021 15:58
В Казахстане в аэропорту Алма-Аты потерпел крушение самолет Ан-26.

В пресс-службе аэропорта сообщили, что самолет летел из города Нур-Султан и разбился при посадке. На его борту находились шесть человек.

По данным МЧС Казахстана, погибли четыре человека. Двоих пострадавших госпитализировали.

https://meduza.io/news/2021/03 ...
Nikita33
Опытный боец
13.03.2021 16:07
Есть кадры сразу после крушения
https://ren.tv/player/video/em ...
Герасим Лейбович-Барский мл.
Старожил форума
13.03.2021 16:10
“13 марта в 17:20 при заходе на посадку в аэропорту Алматы пропала связь с воздушным судном АН-26, следовавшим по маршруту Нур-Султан — Алматы. Сразу была объявлена тревога, аварийно-спасательные службы аэропорта выехали на место. По предварительной информации, борт потерпел крушение в торце взлетно-посадочной полосы”, — говорится в сообщении аэропорта Алматы.

На месте находятся расчеты Пожарной части-11 (1, 2); 9 человек, 1 единица техники, 1 кинологический расчет Республиканского оперативно-спасательного отряда (РОСО); 5 человек, 1 единица техники Службы спасения г. Алматы.

На месте также работает 4 единицы техники СПАСОП и 2 единицы техники ГУ «СПиАСР» Алматинской области, возгорание самолета ликвидировано.

Помимо этого, работает 10 реанимационных бригад скорой помощи Управления общественного здоровья Алматы.

На борту находились шесть человек. Пргибли 4 человека. На месте происшествия работают оперативные службы.

Кадры с места происшествия появились в Сети. По словам очевидцев, это произошло в районе поселка Кызылту возле аэропорта.

https://www.youtube.com/watch? ...
Герасим Лейбович-Барский мл.
Старожил форума
13.03.2021 16:14
По предварительным данным, это самолет погранслужбы КНБ Казахстана.
former Borderserviseman
Старожил форума
13.03.2021 16:14
вроде как погранцовский...блин....
https://www.gazeta.ru/social/n ...
Имярек
Старожил форума
13.03.2021 16:44
Залетчик
Старожил форума
13.03.2021 17:11
Долбаный Ю-тюб, они умудрились вставить рекламу в просмотр кадров после катастрофы. Не удивлюсь пляскам за деньги на их собственных семейных похоронах.
НМ
Старожил форума
13.03.2021 17:37
совсем недавно:
https://www.forumavia.ru/t/185 ...
Gribov12A998
Старожил форума
13.03.2021 17:44
Насколько мне известно, в Илийском районе (я так понимаю, - это место катастрофы) находится аэропорт "Бурундай". Очевидно, - всё произошло там. Кроме гражданского парка , там дислоцируется полк погранавиации. Но, вроде, - у них не было АН26. В аэропорту также базируются подразделения МЧС и МВД.
Судя по остаткам , пострадали центроплан и носовая часть. Думаю, заходили не по глиссаде.
Simmerman
Старожил форума
13.03.2021 17:59
Скорее всего отказ двигателя и потеря скорости
Gribov12A998
Старожил форума
13.03.2021 18:03
Хотя по некоторым данным, вот здесь, - https://online.zakon.kz/Docume ... , в парке у погранцов были, по крайней мере - два АН26
Gribov12A998
Старожил форума
13.03.2021 18:18
Simmerman
Скорее всего отказ двигателя и потеря скорости
Отказ двигателя на посадке, - не проблема для самолёта. При грамотном пилотировании, - даже при отказе двух садились.
Simmerman
Старожил форума
13.03.2021 18:20
На АН24-26 и Л410 это может быть проблемой - было немало катастроф. секунды решают.
Captain Smollett
Старожил форума
13.03.2021 18:31
Да ладно, не надо демонизировать винты. Отказ двигателя сам по себе не критичен. Критичны бестолковые и безграмотные действия. Чугуев тому пример
WERTUHIGH
Старожил форума
13.03.2021 18:58
Клевок?
Simmerman
Старожил форума
13.03.2021 19:03
Может и клевок из-за обледенения стаба
mvm
Опытный боец
13.03.2021 19:10
Gribov12A998
Насколько мне известно, в Илийском районе (я так понимаю, - это место катастрофы) находится аэропорт "Бурундай". Очевидно, - всё произошло там. Кроме гражданского парка , там дислоцируется полк погранавиации. Но, вроде, - у них не было АН26. В аэропорту также базируются подразделения МЧС и МВД.
Судя по остаткам , пострадали центроплан и носовая часть. Думаю, заходили не по глиссаде.
Неправильно понимаете! Катастрофа в районе Международного аэропорта Алма-Ата, с курсом посадки 232, недалеко от торца (((
l-39
Старожил форума
13.03.2021 19:20
Gribov12A998
Отказ двигателя на посадке, - не проблема для самолёта. При грамотном пилотировании, - даже при отказе двух садились.
Ну да, всегда по одному сценарию же!
Хули там, рули да и фсё!
Вы в небе то бывали за штурвалом?
l-39
Старожил форума
13.03.2021 19:27
Одно дело отрабатывать заход с отказавшим, другое, когда над ближним движок сдувается, а ты в глиссаде как с работающим!
IgorIrkyt
Старожил форума
13.03.2021 19:36
Captain Smollett
Старожил форума
13.03.2021 19:43
l-39
Одно дело отрабатывать заход с отказавшим, другое, когда над ближним движок сдувается, а ты в глиссаде как с работающим!
Ну а кто виноват, если на заходе ворон считаешь? Ладно один в кабине, сам себе злой буратина. А если кроме тебя народу? Да ещё за спиной? Всегда надо быть готовым ко всему.
l-39
Старожил форума
13.03.2021 20:01
Captain Smollett
Ну а кто виноват, если на заходе ворон считаешь? Ладно один в кабине, сам себе злой буратина. А если кроме тебя народу? Да ещё за спиной? Всегда надо быть готовым ко всему.
Так то, да, готовым на всех этапах полёта надо быть, но.... уогда у тебя 2, 5 по глиссаде к торцу, то при отказе ...... кто пилот, тот знает.
Расстояние от ближнего до торца - всё в костЯх, как ни какой другой участок.
Владимир Волк
Старожил форума
13.03.2021 20:22
А почему считаете, что двигатель там отказал? Вроде про сдвиг ветра была информация.
mvm
Опытный боец
13.03.2021 20:28
UAAA 131257Z 29005MPS 4400 -FZDZ BR OVC003 M04/M05 Q1017 R88/2/0150 NOSIG RMK QBB100
UAAA 131230Z 30005MPS 5000 -FZDZ BR OVC002 M04/M04 Q1016 R88/2/0150 NOSIG RMK QBB085
UAAA 131200Z 30005MPS 5000 -FZDZ BR OVC003 M03/M04 Q1016 R88/2/0150 NOSIG RMK QBB095
UAAA 131130Z 28005MPS 5000 -FZDZ BR OVC003 M03/M03 Q1016 R88/2/0150 NOSIG RMK QBB115
UAAA 131100Z 30005MPS 5000 -FZDZ BR OVC003 M02/M03 Q1016 R88/2/0150 NOSIG RMK QBB110
UAAA 131030Z 31004MPS 3800 -FZDZ BR OVC003 M02/M02 Q1015 R88/1///60 NOSIG RMK QBB100
_
_+++++++
Погода, одна из составляющих.....
Имхо
связь пропала в 11.20
l-39
Старожил форума
13.03.2021 20:40
Владимир Волк
А почему считаете, что двигатель там отказал? Вроде про сдвиг ветра была информация.
Я не знаю, что там было, га самом деле, я про отказ движков, хотя отказ двух одновременно попахивает недостатком пального. ИМХО, опять же ж.
Viktor49A
Старожил форума
13.03.2021 20:57
Туман был, после обеда, в городе. Кое-какие комментарии из наших СМИ:

(С)
13 марта в 17.22 в связи с крушением воздушного судна Ан-26 был закрыт аэродром Алматы. Как уточнил источник агентства, военный самолет КНБ, следовавший по маршруту «Нур-Султан-Алматы», упал при заходе на посадку. В МИИР подтвердили, что упавший самолет не является гражданским, добавив, что информацию предоставит КНБ. Позже МЧС официально подтвердило крушение военного самолета, сообщив о гибели четырех и госпитализации двоих человек, состояние которых оценивается как крайне тяжелое. Агентству КазТАГ стали известны их имена, а также имена погибших, а также то,

что самолет упал между двумя взлетно-посадочными полосами.


(С)

Михаил Левашов в момент крушения самолета возвращался домой и проезжал недалеко от места ЧП.

"В 16 часов мы с друзьями выехали домой. В 17.19 друзья сказали, что видят, как самолет как-то странно заходит на посадку: как будто разворачивается, но летит прямо. Через несколько секунд, в 17.20, мы услышали взрыв и увидели вспышку. Поняли, что самолет упал", - поделился Михаил Левашов.
Viktor49A
Старожил форума
13.03.2021 21:07
На видео взрыва только что упавшего самолета судя по поднимающемуся облаку, видимость хорошая.

https://ren.tv/news/x/811776-d ...
Simmerman
Старожил форума
13.03.2021 21:19
**странно заходит на посадку: как будто разворачивается, но летит прямо**
тут и ключ к падению
l-39
Старожил форума
13.03.2021 21:40
mvm
UAAA 131257Z 29005MPS 4400 -FZDZ BR OVC003 M04/M05 Q1017 R88/2/0150 NOSIG RMK QBB100
UAAA 131230Z 30005MPS 5000 -FZDZ BR OVC002 M04/M04 Q1016 R88/2/0150 NOSIG RMK QBB085
UAAA 131200Z 30005MPS 5000 -FZDZ BR OVC003 M03/M04 Q1016 R88/2/0150 NOSIG RMK QBB095
UAAA 131130Z 28005MPS 5000 -FZDZ BR OVC003 M03/M03 Q1016 R88/2/0150 NOSIG RMK QBB115
UAAA 131100Z 30005MPS 5000 -FZDZ BR OVC003 M02/M03 Q1016 R88/2/0150 NOSIG RMK QBB110
UAAA 131030Z 31004MPS 3800 -FZDZ BR OVC003 M02/M02 Q1015 R88/1///60 NOSIG RMK QBB100
_
_+++++++
Погода, одна из составляющих.....
Имхо
связь пропала в 11.20
И где тут сдвиг?!
ТПА
Старожил форума
13.03.2021 22:03
Simmerman
**странно заходит на посадку: как будто разворачивается, но летит прямо**
тут и ключ к падению
Отказ и нефлюгирование?
cumulus
Старожил форума
13.03.2021 22:03
Шло два борта Ан-26 26109 и 26201 (который упал).
По докладам предыдущих экипажей наблюдалось умеренное обледенение с высоты 5200фт (~1700м) и до земли.
При посадке на 023L от диспетчера была информация - "облачность сплошная на 130 м".
Непосредственно перед катастрофой от 26201 был доклад об уходе на второй.
Запись есть на liveatc.net
Непосредственным свидетелем был борт RA-02765, который рулил на вылет в начало полосы.
Герасим Лейбович-Барский мл.
Старожил форума
13.03.2021 22:11
l-39
И где тут сдвиг?!
ИМХО. Обледенение как в расшифровках METAR и пр. - температура воздуха -3°С/ точка росы -3°C.
Герасим Лейбович-Барский мл.
Старожил форума
13.03.2021 22:14
Герасим Лейбович-Барский мл.
ИМХО. Обледенение как в расшифровках METAR и пр. - температура воздуха -3°С/ точка росы -3°C.
Еще в начале это предположили камрады, до публикации данных METAR^

WERTUHIGH
Старожил форума
13.03.2021 18:58
Клевок?



Simmerman - зарегистрированный пользователь
Simmerman
Старожил форума
13.03.2021 19:03
Может и клевок из-за обледенения стаба
Ле-Бурже
Опытный боец
13.03.2021 22:29
Повторение бугульминской катастрофы ?...
Simmerman
Старожил форума
13.03.2021 22:50
Похоже на Бугульму, но не совсем. Очевидцы наблюдали полет боком - разнотяг. Скорее отрыв льда с воздухозаборника.
Simmerman
Старожил форума
13.03.2021 22:53
Самолет не врезался в землю под углом, что было бы вероятно при клевке, а упал на спину из-за развившегося крена и скольжения с последующим переворотом. Похоже так.
Герасим Лейбович-Барский мл.
Старожил форума
13.03.2021 23:02
Simmerman
Похоже на Бугульму, но не совсем. Очевидцы наблюдали полет боком - разнотяг. Скорее отрыв льда с воздухозаборника.
Постоянно: -FZDZ BR Легкая ледяная морось. Мгла.
Ле-Бурже
Опытный боец
13.03.2021 23:16
Simmerman
Самолет не врезался в землю под углом, что было бы вероятно при клевке, а упал на спину из-за развившегося крена и скольжения с последующим переворотом. Похоже так.
С Бугульмой связаны две катастрофы семейства Ан-24. Казанского авиотряда (Ан-24РВ) и Быковского (Ан-24Б). Вы вероятно про быковский имеете ввиду.. http://www.airdisaster.ru/data ...
Captain Smollett
Старожил форума
13.03.2021 23:39
l-39
Так то, да, готовым на всех этапах полёта надо быть, но.... уогда у тебя 2, 5 по глиссаде к торцу, то при отказе ...... кто пилот, тот знает.
Расстояние от ближнего до торца - всё в костЯх, как ни какой другой участок.
Вв правы. Но в инструкции/руководстве всё прописано. Так что нового ничего нет. Надо быть готовым только к неожиданному
Lem
Старожил форума
14.03.2021 00:09
Залетчик
Долбаный Ю-тюб, они умудрились вставить рекламу в просмотр кадров после катастрофы. Не удивлюсь пляскам за деньги на их собственных семейных похоронах.
Вставлять или нет рекламу - решает тот, кто выложил ролик, а не "Ю-тюб"
Captain Smollett
Старожил форума
14.03.2021 00:10
Simmerman
Самолет не врезался в землю под углом, что было бы вероятно при клевке, а упал на спину из-за развившегося крена и скольжения с последующим переворотом. Похоже так.
Крен скорее всего развился из-за отказа двигателя и перехода винта на авторотацию.
Анатолий-Пулково
Старожил форума
14.03.2021 00:24
Еще и в праздник...13 марта-День авиационной службы КНБ. Соболезнования родным и близким.
Залетчик
Старожил форума
14.03.2021 01:20
Lem
Вставлять или нет рекламу - решает тот, кто выложил ролик, а не "Ю-тюб"
Во власти Ю-тюба отказаться от проявления цинизма в виде собственного и клиентского заработка на чужом горе.
klm911
Старожил форума
14.03.2021 06:53
Captain Smollett
Да ладно, не надо демонизировать винты. Отказ двигателя сам по себе не критичен. Критичны бестолковые и безграмотные действия. Чугуев тому пример
Если на отрицательные углы уходит, на малых скоростях , рули на упор и всё, тут ни Алюминиев ни Чугуев не справится
НМ
Старожил форума
14.03.2021 07:45
klm911
Если на отрицательные углы уходит, на малых скоростях , рули на упор и всё, тут ни Алюминиев ни Чугуев не справится
похоже и закрылки не были выпущены в требуемое положение 10°, а как обычно - 30°.
klm911
Старожил форума
14.03.2021 07:55
НМ
похоже и закрылки не были выпущены в требуемое положение 10°, а как обычно - 30°.
По условиям обледенения могут не выпускать , на Элке в условиях обледенения хакр 18 ( не 42 ‘и скорость +10 , думаю и на Ан-26 , что- то похожее .
местный
Старожил форума
14.03.2021 08:10
Simmerman
Похоже на Бугульму, но не совсем. Очевидцы наблюдали полет боком - разнотяг. Скорее отрыв льда с воздухозаборника.
Вы же не лётчик, зачем всякую хрень писать о чем не ведёте?
местный
Старожил форума
14.03.2021 08:24
klm911
По условиям обледенения могут не выпускать , на Элке в условиях обледенения хакр 18 ( не 42 ‘и скорость +10 , думаю и на Ан-26 , что- то похожее .
Не путайте ПОС элки и данного типа. Там она условная, а тут полноценная. На этом самолете закрылки 10 выпускают в условиях сильного обледенения, а такого судя по информации тех кто садился до АП не было.
Владимир Волк
Старожил форума
14.03.2021 08:26
l-39
И где тут сдвиг?!
Не было сдвига, уже посмотрел. АРньюз сначала писали. Мне скрин бросили просто.
Viktor49A
Старожил форума
14.03.2021 09:24
Фото с другого плана

https://ibb.co/hKD8WM9
123





 

 

 

 

← На главную страницу

Чтобы публиковать комментарии, вы должны войти на сайт.

Реклама на сайте Обратная связь/Связаться с администрацией
Рейтинг@Mail.ru